Time;durP1;ratioP1;P1;durP2;ratioP2;P2;SDS_P1;SDS_P2;PMS_P1;PMS_P2;Temp;Humidity;BMP_temperature;BMP_pressure;BME280_temperature;BME280_humidity;BME280_pressure;Samples;Min_cycle;Max_cycle;Signal;HPM_P1;HPM_P2
2021/08/30 00:01:49;;;;;;;4.50;3.13;;;20.60;73.60;;;;;;5155086;27;20071;-42
2021/08/30 00:04:15;;;;;;;3.85;2.90;;;20.50;73.50;;;;;;5154907;27;20042;-42
2021/08/30 00:06:41;;;;;;;3.08;2.60;;;20.50;73.50;;;;;;5154499;27;20043;-43
2021/08/30 00:09:08;;;;;;;3.28;2.80;;;20.50;73.50;;;;;;5154547;27;20031;-42
2021/08/30 00:11:34;;;;;;;3.13;2.75;;;20.50;73.50;;;;;;5154609;27;20114;-39
2021/08/30 00:13:59;;;;;;;3.50;2.83;;;20.50;73.50;;;;;;5154018;27;20486;-41
2021/08/30 00:16:25;;;;;;;2.90;2.55;;;20.50;73.50;;;;;;5154117;27;20043;-40
2021/08/30 00:18:51;;;;;;;3.78;2.53;;;20.50;73.50;;;;;;5154451;27;20038;-41
2021/08/30 00:21:16;;;;;;;3.55;2.72;;;20.50;73.50;;;;;;5135662;27;20058;-40
2021/08/30 00:23:42;;;;;;;3.05;2.75;;;20.50;73.50;;;;;;5154043;27;20043;-36
2021/08/30 00:26:08;;;;;;;3.35;2.67;;;20.50;73.50;;;;;;5153823;27;20031;-41
2021/08/30 00:28:33;;;;;;;3.50;2.83;;;20.50;73.50;;;;;;5154182;27;20095;-40
2021/08/30 00:30:59;;;;;;;4.75;2.90;;;20.50;73.50;;;;;;5154388;27;20079;-41
2021/08/30 00:33:25;;;;;;;3.38;2.47;;;20.50;73.50;;;;;;5154288;27;20038;-39
2021/08/30 00:35:50;;;;;;;2.70;2.45;;;20.60;73.60;;;;;;5154214;27;20066;-38
2021/08/30 00:38:16;;;;;;;4.18;2.70;;;20.50;73.50;;;;;;5153838;27;20509;-41
2021/08/30 00:40:41;;;;;;;2.83;2.40;;;20.50;73.50;;;;;;5153720;27;20050;-41
2021/08/30 00:43:09;;;;;;;3.63;2.70;;;20.40;73.50;;;;;;5154334;27;20121;-40
2021/08/30 00:45:35;;;;;;;3.60;2.90;;;20.50;73.50;;;;;;5154031;27;20069;-41
2021/08/30 00:48:01;;;;;;;3.50;2.80;;;20.50;73.50;;;;;;5154005;27;20498;-39
2021/08/30 00:50:28;;;;;;;3.78;2.65;;;20.50;73.50;;;;;;5154176;27;20058;-42
2021/08/30 00:52:54;;;;;;;2.63;2.38;;;20.50;73.50;;;;;;5154004;27;20043;-39
2021/08/30 00:55:20;;;;;;;3.38;2.28;;;20.50;73.50;;;;;;5153780;27;20091;-41
2021/08/30 00:57:47;;;;;;;3.30;2.63;;;20.50;73.50;;;;;;5153922;27;20038;-44
2021/08/30 01:00:14;;;;;;;3.88;2.83;;;20.50;73.50;;;;;;5153335;27;20058;-41
2021/08/30 01:02:41;;;;;;;4.18;2.42;;;20.50;73.50;;;;;;5154037;27;20047;-41
2021/08/30 01:05:12;;;;;;;3.92;2.72;;;20.50;73.50;;;;;;5153988;27;20042;-39
2021/08/30 01:08:02;;;;;;;2.67;2.40;;;20.50;73.50;;;;;;5153381;27;20041;-40
2021/08/30 01:11:05;;;;;;;3.35;2.80;;;20.50;73.40;;;;;;5153455;27;20043;-36
2021/08/30 01:13:39;;;;;;;4.18;2.58;;;20.50;73.40;;;;;;5153811;27;20062;-41
2021/08/30 01:16:07;;;;;;;3.40;2.97;;;20.50;73.50;;;;;;5153726;27;20582;-41
2021/08/30 01:18:34;;;;;;;3.53;2.67;;;20.50;73.50;;;;;;5153393;27;20154;-44
2021/08/30 01:21:27;;;;;;;4.63;3.03;;;20.50;73.50;;;;;;5153030;27;20081;-41
2021/08/30 01:23:57;;;;;;;3.60;2.88;;;20.50;73.40;;;;;;5154064;27;20386;-41
2021/08/30 01:26:26;;;;;;;3.63;2.95;;;20.50;73.50;;;;;;5153029;27;20050;-44
2021/08/30 01:29:04;;;;;;;3.28;2.63;;;20.50;73.50;;;;;;5153609;27;20042;-40
2021/08/30 01:31:57;;;;;;;3.50;2.70;;;20.50;73.50;;;;;;5153476;27;20054;-41
2021/08/30 01:34:25;;;;;;;3.00;2.70;;;20.50;73.50;;;;;;5153761;27;20125;-41
2021/08/30 01:36:51;;;;;;;3.85;2.53;;;20.50;73.50;;;;;;5153385;27;20030;-45
2021/08/30 01:39:18;;;;;;;3.50;2.63;;;20.50;73.50;;;;;;5153477;27;20042;-39
2021/08/30 01:41:45;;;;;;;3.30;2.72;;;20.50;73.50;;;;;;5153120;27;20035;-40
2021/08/30 01:44:12;;;;;;;3.83;2.90;;;20.50;73.50;;;;;;5152840;27;20043;-41
2021/08/30 01:46:39;;;;;;;3.85;2.60;;;20.50;73.50;;;;;;5153641;27;20058;-41
2021/08/30 01:49:06;;;;;;;3.78;2.72;;;20.50;73.50;;;;;;5153777;27;20042;-44
2021/08/30 01:51:33;;;;;;;3.88;2.67;;;20.50;73.50;;;;;;5134823;27;20046;-41
2021/08/30 01:53:59;;;;;;;4.55;2.65;;;20.50;73.50;;;;;;5156183;27;20042;-40
2021/08/30 01:56:29;;;;;;;4.13;2.97;;;20.50;73.50;;;;;;5157459;27;20522;-40
2021/08/30 02:01:42;;;;;;;2.90;2.58;;;20.50;73.50;;;;;;5093746;28;20044;-38
2021/08/30 02:04:07;;;;;;;3.88;2.70;;;20.50;73.50;;;;;;5093299;28;20056;-40
2021/08/30 02:06:34;;;;;;;4.50;2.78;;;20.50;73.50;;;;;;5092982;28;20044;-37
2021/08/30 02:09:01;;;;;;;3.85;2.80;;;20.50;73.50;;;;;;5076358;28;20082;-41
2021/08/30 02:11:32;;;;;;;3.10;2.80;;;20.50;73.50;;;;;;5093172;28;20048;-42
2021/08/30 02:13:59;;;;;;;3.28;2.70;;;20.50;73.50;;;;;;5092657;28;20055;-41
2021/08/30 02:16:26;;;;;;;3.33;2.75;;;20.50;73.50;;;;;;5092769;28;20119;-42
2021/08/30 02:18:56;;;;;;;3.40;2.70;;;20.50;73.50;;;;;;5092990;28;20130;-38
2021/08/30 02:21:47;;;;;;;3.28;2.70;;;20.50;73.50;;;;;;5093110;28;20565;-42
2021/08/30 02:24:29;;;;;;;3.33;3.03;;;20.50;73.40;;;;;;5092848;28;20044;-40
2021/08/30 02:27:14;;;;;;;3.47;2.50;;;20.50;73.50;;;;;;5092559;28;20047;-39
2021/08/30 02:29:46;;;;;;;3.88;3.00;;;20.50;73.50;;;;;;5091827;28;20487;-38
2021/08/30 02:32:14;;;;;;;3.20;2.53;;;20.50;73.50;;;;;;5092808;28;20136;-42
2021/08/30 02:34:45;;;;;;;3.30;3.00;;;20.50;73.50;;;;;;5075451;28;20048;-42
2021/08/30 02:37:12;;;;;;;2.92;2.63;;;20.50;73.50;;;;;;5092362;28;20097;-44
2021/08/30 02:39:39;;;;;;;3.22;2.60;;;20.50;73.50;;;;;;5146935;27;20138;-40
2021/08/30 02:42:06;;;;;;;3.67;2.60;;;20.50;73.50;;;;;;5156718;27;20113;-40
2021/08/30 02:44:33;;;;;;;3.33;2.78;;;20.50;73.50;;;;;;5156186;27;20050;-45
2021/08/30 02:46:59;;;;;;;2.97;2.38;;;20.50;73.50;;;;;;5156693;27;20390;-43
2021/08/30 02:49:26;;;;;;;3.75;2.83;;;20.50;73.50;;;;;;5155759;27;20066;-50
2021/08/30 02:51:54;;;;;;;3.33;2.53;;;20.50;73.50;;;;;;5156621;27;20049;-43
2021/08/30 02:54:22;;;;;;;3.38;3.03;;;20.50;73.50;;;;;;5156236;27;20126;-42
2021/08/30 02:56:48;;;;;;;3.30;2.80;;;20.50;73.50;;;;;;5156249;27;20076;-42
2021/08/30 02:59:15;;;;;;;4.35;2.78;;;20.40;73.40;;;;;;5155870;27;20038;-42
2021/08/30 03:01:43;;;;;;;3.38;2.72;;;20.50;73.50;;;;;;5155635;27;20075;-42
2021/08/30 03:04:11;;;;;;;2.92;2.53;;;20.50;73.50;;;;;;5155451;27;20382;-42
2021/08/30 03:06:38;;;;;;;2.95;2.65;;;20.50;73.50;;;;;;5156253;27;20062;-44
2021/08/30 03:09:04;;;;;;;4.00;2.97;;;20.40;73.40;;;;;;5155830;27;20066;-41
2021/08/30 03:11:32;;;;;;;3.63;2.53;;;20.50;73.50;;;;;;5156038;27;20079;-39
2021/08/30 03:14:00;;;;;;;3.75;2.55;;;20.50;73.50;;;;;;5155893;27;20401;-43
2021/08/30 03:16:27;;;;;;;2.70;2.45;;;20.50;74.10;;;;;;5155464;27;20043;-43
2021/08/30 03:18:54;;;;;;;3.60;2.63;;;20.50;73.50;;;;;;5155515;27;20106;-40
2021/08/30 03:21:23;;;;;;;3.33;2.80;;;20.50;73.50;;;;;;5155736;27;20043;-42
2021/08/30 03:23:50;;;;;;;3.33;2.60;;;20.50;73.50;;;;;;5155660;27;20049;-41
2021/08/30 03:26:16;;;;;;;4.00;2.97;;;20.40;73.40;;;;;;5155716;27;20043;-40
2021/08/30 03:28:42;;;;;;;3.50;2.20;;;20.50;73.40;;;;;;5155797;27;20049;-41
2021/08/30 03:31:08;;;;;;;3.47;2.78;;;20.50;73.50;;;;;;5155147;27;20122;-41
2021/08/30 03:33:34;;;;;;;3.00;2.55;;;20.50;73.50;;;;;;5154790;27;20042;-42
2021/08/30 03:36:01;;;;;;;3.30;2.80;;;20.50;73.40;;;;;;5155599;27;20039;-41
2021/08/30 03:38:29;;;;;;;3.42;2.38;;;20.50;73.40;;;;;;5155568;27;20039;-41
2021/08/30 03:40:56;;;;;;;3.95;2.67;;;20.50;73.50;;;;;;5155009;27;20046;-39
2021/08/30 03:43:22;;;;;;;4.63;2.95;;;20.50;73.40;;;;;;5155247;27;20152;-40
2021/08/30 03:45:49;;;;;;;3.20;2.55;;;20.50;73.40;;;;;;5155291;27;20046;-42
2021/08/30 03:48:15;;;;;;;2.70;2.35;;;20.50;73.40;;;;;;5154595;27;20050;-41
2021/08/30 03:50:41;;;;;;;2.95;2.33;;;20.50;73.40;;;;;;5155410;27;20042;-41
2021/08/30 03:53:08;;;;;;;3.35;2.75;;;20.50;73.40;;;;;;5154864;27;20157;-38
2021/08/30 03:55:34;;;;;;;3.13;2.47;;;20.50;73.40;;;;;;5154928;27;20078;-40
2021/08/30 03:58:00;;;;;;;3.70;2.47;;;20.40;73.40;;;;;;5155359;27;20392;-40
2021/08/30 04:00:27;;;;;;;3.20;2.40;;;20.50;73.40;;;;;;5155054;27;20043;-40
2021/08/30 04:02:54;;;;;;;4.47;2.83;;;20.50;73.40;;;;;;5154283;27;20455;-41
2021/08/30 04:05:25;;;;;;;3.70;2.58;;;20.50;73.40;;;;;;5154778;27;20050;-42
2021/08/30 04:07:51;;;;;;;3.65;2.33;;;20.50;73.40;;;;;;5155187;27;20100;-42
2021/08/30 04:10:19;;;;;;;3.25;2.60;;;20.50;73.40;;;;;;5155055;27;20482;-42
2021/08/30 04:12:45;;;;;;;3.70;2.70;;;20.50;73.50;;;;;;5154974;27;20045;-37
2021/08/30 04:15:10;;;;;;;2.95;2.55;;;20.50;73.50;;;;;;5133710;27;20441;-42
2021/08/30 04:17:36;;;;;;;3.47;2.65;;;20.50;73.40;;;;;;5133396;27;20063;-40
2021/08/30 04:20:03;;;;;;;3.80;2.70;;;20.50;73.40;;;;;;5133389;27;20103;-40
2021/08/30 04:22:28;;;;;;;3.35;2.83;;;20.50;73.40;;;;;;5133941;27;20122;-39
2021/08/30 04:24:54;;;;;;;2.67;2.47;;;20.50;73.40;;;;;;5146680;27;20118;-42
2021/08/30 04:27:20;;;;;;;3.03;2.67;;;20.50;73.40;;;;;;5154735;27;20471;-41
2021/08/30 04:29:45;;;;;;;3.33;2.97;;;20.50;73.40;;;;;;5154361;27;20031;-40
2021/08/30 04:32:12;;;;;;;3.05;2.53;;;20.50;73.40;;;;;;5154245;27;20506;-40
2021/08/30 04:34:41;;;;;;;2.53;2.30;;;20.50;73.40;;;;;;5153986;27;20515;-41
2021/08/30 04:37:07;;;;;;;3.33;2.47;;;20.50;73.40;;;;;;5153406;27;20070;-42
2021/08/30 04:39:33;;;;;;;3.90;2.80;;;20.50;73.40;;;;;;5153070;27;20042;-41
2021/08/30 04:41:59;;;;;;;2.95;2.33;;;20.50;73.40;;;;;;5153565;27;20042;-40
2021/08/30 04:44:25;;;;;;;3.28;2.60;;;20.50;73.50;;;;;;5153658;27;20043;-41
2021/08/30 04:46:50;;;;;;;3.50;2.60;;;20.50;73.40;;;;;;5154013;27;20394;-39
2021/08/30 04:49:16;;;;;;;3.38;2.70;;;20.40;73.40;;;;;;5154290;27;20039;-44
2021/08/30 04:51:42;;;;;;;3.90;2.85;;;20.50;73.40;;;;;;5153426;27;20493;-39
2021/08/30 04:54:07;;;;;;;2.65;2.30;;;20.40;73.30;;;;;;5153968;27;20475;-43
2021/08/30 04:56:33;;;;;;;4.32;2.85;;;20.40;73.40;;;;;;5153685;27;20114;-42
2021/08/30 04:58:59;;;;;;;3.38;2.80;;;20.50;73.40;;;;;;5153854;27;20041;-42
2021/08/30 05:01:24;;;;;;;2.80;2.35;;;20.50;73.40;;;;;;5153854;27;20483;-42
2021/08/30 05:03:51;;;;;;;3.63;2.97;;;20.40;73.40;;;;;;5153712;27;20462;-41
2021/08/30 05:06:17;;;;;;;3.15;2.60;;;20.40;73.40;;;;;;5153170;27;20043;-38
2021/08/30 05:08:43;;;;;;;3.35;2.95;;;20.50;73.40;;;;;;5153036;27;20134;-41
2021/08/30 05:11:08;;;;;;;2.60;2.40;;;20.40;73.40;;;;;;5154095;27;20050;-41
2021/08/30 05:13:34;;;;;;;3.38;2.63;;;20.40;73.40;;;;;;5153498;27;20051;-39
2021/08/30 05:16:00;;;;;;;3.67;2.85;;;20.40;73.40;;;;;;5134781;27;20126;-40
2021/08/30 05:18:25;;;;;;;3.17;2.70;;;20.50;73.40;;;;;;5153301;27;20074;-42
2021/08/30 05:20:52;;;;;;;2.80;2.58;;;20.40;73.40;;;;;;5153434;27;20146;-41
2021/08/30 05:23:18;;;;;;;2.55;2.08;;;20.40;73.40;;;;;;5153147;27;20049;-42
2021/08/30 05:25:44;;;;;;;3.30;2.60;;;20.40;73.40;;;;;;5153759;27;20402;-40
2021/08/30 05:28:10;;;;;;;3.65;2.58;;;20.50;73.50;;;;;;5156563;27;20034;-41
2021/08/30 05:30:36;;;;;;;3.40;2.22;;;20.40;73.40;;;;;;5139511;27;20518;-42
2021/08/30 05:33:04;;;;;;;2.40;2.20;;;20.40;73.40;;;;;;5158093;27;20043;-41
2021/08/30 05:35:30;;;;;;;3.00;2.65;;;20.40;73.40;;;;;;5157805;27;20053;-39
2021/08/30 05:37:55;;;;;;;3.30;2.40;;;20.40;73.40;;;;;;5157846;27;20467;-42
2021/08/30 05:40:21;;;;;;;3.05;2.45;;;20.50;73.40;;;;;;5138038;27;20051;-39
2021/08/30 05:42:47;;;;;;;2.72;2.30;;;20.40;73.40;;;;;;5157890;27;20386;-46
2021/08/30 05:45:12;;;;;;;2.60;2.40;;;20.50;73.40;;;;;;5139206;27;20047;-44
2021/08/30 05:47:38;;;;;;;3.35;2.65;;;20.40;73.40;;;;;;5157772;27;20031;-40
2021/08/30 05:50:05;;;;;;;3.03;2.33;;;20.40;73.40;;;;;;5157100;27;20043;-41
2021/08/30 05:52:30;;;;;;;4.28;2.55;;;20.40;73.40;;;;;;5157695;27;20389;-39
2021/08/30 05:54:56;;;;;;;2.78;2.30;;;20.40;73.40;;;;;;5157152;27;20047;-44
2021/08/30 05:57:21;;;;;;;2.90;2.50;;;20.50;73.40;;;;;;5157775;27;20038;-43
2021/08/30 05:59:47;;;;;;;2.58;2.00;;;20.40;73.30;;;;;;5157296;27;20091;-41
2021/08/30 06:02:13;;;;;;;3.22;2.28;;;20.50;73.40;;;;;;5157695;27;20475;-44
2021/08/30 06:04:38;;;;;;;3.00;2.63;;;20.40;73.30;;;;;;5157176;27;20161;-41
2021/08/30 06:07:04;;;;;;;2.92;2.63;;;20.40;73.40;;;;;;5138639;27;20439;-42
2021/08/30 06:09:30;;;;;;;4.70;2.85;;;20.40;73.40;;;;;;5156652;27;20256;-45
2021/08/30 06:11:56;;;;;;;3.03;2.50;;;20.40;73.40;;;;;;5156979;27;20053;-41
2021/08/30 06:14:22;;;;;;;2.97;2.47;;;20.40;73.40;;;;;;5156951;27;20513;-42
2021/08/30 06:16:48;;;;;;;2.90;2.40;;;20.40;73.40;;;;;;5156952;27;20047;-38
2021/08/30 06:19:13;;;;;;;3.33;2.63;;;20.50;73.50;;;;;;5157251;27;20057;-42
2021/08/30 06:21:39;;;;;;;2.80;2.28;;;20.50;73.50;;;;;;5156915;27;20070;-42
2021/08/30 06:24:06;;;;;;;2.60;2.40;;;20.40;73.40;;;;;;5157078;27;20114;-38
2021/08/30 06:26:33;;;;;;;3.70;2.53;;;20.40;73.40;;;;;;5156673;27;20046;-42
2021/08/30 06:28:59;;;;;;;3.38;2.50;;;20.40;73.40;;;;;;5157136;27;20043;-42
2021/08/30 06:31:25;;;;;;;3.35;2.63;;;20.40;73.40;;;;;;5156392;27;20039;-39
2021/08/30 06:33:50;;;;;;;2.53;2.25;;;20.40;73.40;;;;;;5137800;27;20046;-42
2021/08/30 06:36:16;;;;;;;3.53;2.55;;;20.40;73.40;;;;;;5156877;27;20051;-41
2021/08/30 06:38:41;;;;;;;3.00;2.55;;;20.40;73.40;;;;;;5156188;27;20074;-42
2021/08/30 06:41:07;;;;;;;3.28;2.55;;;20.40;73.40;;;;;;5156437;27;20474;-38
2021/08/30 06:43:33;;;;;;;3.30;2.60;;;20.40;73.40;;;;;;5156338;27;20042;-41
2021/08/30 06:45:58;;;;;;;2.90;2.33;;;20.40;73.40;;;;;;5156131;27;20522;-42
2021/08/30 06:48:24;;;;;;;2.38;2.15;;;20.40;73.40;;;;;;5156422;27;20027;-41
2021/08/30 06:50:50;;;;;;;3.58;2.35;;;20.40;73.40;;;;;;5156509;27;20089;-41
2021/08/30 06:53:15;;;;;;;2.63;2.42;;;20.40;73.40;;;;;;5155924;27;20042;-41
2021/08/30 06:55:41;;;;;;;3.10;2.50;;;20.40;73.40;;;;;;5156567;27;20043;-41
2021/08/30 06:58:06;;;;;;;3.38;2.65;;;20.40;73.40;;;;;;5155683;27;20053;-42
2021/08/30 07:00:32;;;;;;;2.75;2.33;;;20.40;73.40;;;;;;5156106;27;20038;-41
2021/08/30 07:02:58;;;;;;;2.83;2.45;;;20.40;73.40;;;;;;5156331;27;20053;-45
2021/08/30 07:05:23;;;;;;;3.28;2.63;;;20.40;73.40;;;;;;5155967;27;20382;-41
2021/08/30 07:07:49;;;;;;;3.55;2.55;;;20.40;73.40;;;;;;5155793;27;20039;-40
2021/08/30 07:10:15;;;;;;;2.60;2.38;;;20.40;73.40;;;;;;5156434;27;20042;-46
2021/08/30 07:12:40;;;;;;;2.45;2.25;;;20.50;73.50;;;;;;5155563;27;20114;-42
2021/08/30 07:15:07;;;;;;;3.38;2.83;;;20.40;73.40;;;;;;5155593;27;20050;-39
2021/08/30 07:17:33;;;;;;;3.17;2.45;;;20.40;73.40;;;;;;5156175;27;20498;-41
2021/08/30 07:20:00;;;;;;;3.00;2.67;;;20.40;73.40;;;;;;5156036;27;20490;-42
2021/08/30 07:22:25;;;;;;;2.85;2.40;;;20.40;73.40;;;;;;5156012;27;20039;-44
2021/08/30 07:24:51;;;;;;;3.67;2.80;;;20.40;73.40;;;;;;5155837;27;20486;-42
2021/08/30 07:27:17;;;;;;;3.78;2.80;;;20.40;73.40;;;;;;5155664;27;20042;-45
2021/08/30 07:29:42;;;;;;;2.90;2.60;;;20.40;73.40;;;;;;5155625;27;20039;-39
2021/08/30 07:32:08;;;;;;;3.10;2.58;;;20.40;73.40;;;;;;5155755;27;20478;-42
2021/08/30 07:34:34;;;;;;;2.90;2.53;;;20.40;73.40;;;;;;5156004;27;20348;-42
2021/08/30 07:37:00;;;;;;;2.83;2.55;;;20.40;73.40;;;;;;5155444;27;20103;-45
2021/08/30 07:39:26;;;;;;;4.22;2.80;;;20.40;73.40;;;;;;5155536;27;20046;-46
2021/08/30 07:41:52;;;;;;;3.55;2.90;;;20.40;73.40;;;;;;5155252;27;20098;-45
2021/08/30 07:44:18;;;;;;;4.05;2.60;;;20.40;73.40;;;;;;5147198;27;20038;-41
2021/08/30 07:46:44;;;;;;;3.78;2.55;;;20.40;73.40;;;;;;5150295;27;20087;-37
2021/08/30 07:49:12;;;;;;;3.35;2.78;;;20.40;73.40;;;;;;5155783;27;20053;-40
2021/08/30 07:51:41;;;;;;;3.08;2.70;;;20.40;73.40;;;;;;5135341;27;20053;-39
2021/08/30 07:54:07;;;;;;;3.67;2.47;;;20.40;73.40;;;;;;5155068;27;20117;-37
2021/08/30 07:56:38;;;;;;;2.88;2.58;;;20.40;73.40;;;;;;5155339;27;20125;-37
2021/08/30 07:59:08;;;;;;;3.10;2.67;;;20.40;73.40;;;;;;5154982;27;20113;-38
2021/08/30 08:01:34;;;;;;;2.85;2.35;;;20.40;73.40;;;;;;5155062;27;20110;-38
2021/08/30 08:03:59;;;;;;;2.83;2.55;;;20.40;73.40;;;;;;5154896;27;20046;-42
2021/08/30 08:06:25;;;;;;;3.55;2.67;;;20.50;73.40;;;;;;5154962;27;20094;-41
2021/08/30 08:08:51;;;;;;;2.85;2.55;;;20.40;73.30;;;;;;5154785;27;20493;-38
2021/08/30 08:11:17;;;;;;;3.22;2.50;;;20.50;73.40;;;;;;5136962;27;20046;-38
2021/08/30 08:13:42;;;;;;;3.28;2.45;;;20.50;73.40;;;;;;5155108;27;20042;-38
2021/08/30 08:16:08;;;;;;;3.20;2.78;;;20.50;73.40;;;;;;5154125;27;20082;-42
2021/08/30 08:18:34;;;;;;;3.17;2.75;;;20.50;73.40;;;;;;5154738;27;20082;-38
2021/08/30 08:21:04;;;;;;;2.72;2.53;;;20.50;73.40;;;;;;5154812;27;20134;-40
2021/08/30 08:23:30;;;;;;;3.60;2.75;;;20.50;73.40;;;;;;5154441;27;20504;-41
2021/08/30 08:25:56;;;;;;;2.95;2.58;;;20.50;73.40;;;;;;5154495;27;20051;-42
2021/08/30 08:28:22;;;;;;;3.38;2.90;;;20.50;73.70;;;;;;5154331;27;20045;-44
2021/08/30 08:30:49;;;;;;;3.20;2.85;;;20.50;73.40;;;;;;5154506;27;20094;-42
2021/08/30 08:33:14;;;;;;;3.05;2.45;;;20.50;73.40;;;;;;5155029;27;20034;-41
2021/08/30 08:35:41;;;;;;;3.40;2.95;;;20.50;73.40;;;;;;5153956;27;20403;-39
2021/08/30 08:38:08;;;;;;;3.55;2.88;;;20.50;73.40;;;;;;5135077;27;20054;-39
2021/08/30 08:40:35;;;;;;;3.63;2.83;;;20.50;73.40;;;;;;5154506;27;20087;-38
2021/08/30 08:43:00;;;;;;;3.17;2.72;;;20.50;73.40;;;;;;5154380;27;20050;-39
2021/08/30 08:45:28;;;;;;;3.28;2.55;;;20.50;73.40;;;;;;5154654;27;20051;-43
2021/08/30 08:47:54;;;;;;;3.58;2.83;;;20.50;73.40;;;;;;5153448;27;20027;-38
2021/08/30 08:50:20;;;;;;;3.13;2.60;;;20.50;73.40;;;;;;5153969;27;20468;-39
2021/08/30 08:52:47;;;;;;;3.50;3.15;;;20.50;73.50;;;;;;5154269;27;20113;-44
2021/08/30 08:55:15;;;;;;;16.25;5.10;;;20.50;73.50;;;;;;5154407;27;20051;-40
2021/08/30 08:57:41;;;;;;;7.28;4.57;;;21.00;74.40;;;;;;5153544;27;20374;-40
2021/08/30 09:00:12;;;;;;;9.00;4.40;;;21.40;73.10;;;;;;5153773;27;20058;-37
2021/08/30 09:02:38;;;;;;;10.70;4.78;;;21.50;72.40;;;;;;5153233;27;20394;-41
2021/08/30 09:05:18;;;;;;;7.25;5.10;;;21.50;72.00;;;;;;5153898;27;20039;-40
2021/08/30 09:07:44;;;;;;;5.78;4.70;;;21.50;71.90;;;;;;5154075;27;20039;-39
2021/08/30 09:10:19;;;;;;;6.38;4.60;;;21.40;71.70;;;;;;5153622;27;20486;-40
2021/08/30 09:12:47;;;;;;;7.03;5.10;;;21.40;71.70;;;;;;5153763;27;20538;-41
2021/08/30 09:15:16;;;;;;;7.75;4.85;;;21.40;71.70;;;;;;5153743;27;20055;-36
2021/08/30 09:17:48;;;;;;;8.32;5.03;;;21.40;71.80;;;;;;5153455;27;20043;-43
2021/08/30 09:20:16;;;;;;;8.45;4.85;;;21.30;71.90;;;;;;5152997;27;20134;-42
2021/08/30 09:22:42;;;;;;;7.38;4.95;;;21.30;72.00;;;;;;5154049;27;20039;-36
2021/08/30 09:25:10;;;;;;;10.27;5.20;;;21.20;72.00;;;;;;5153528;27;20463;-44
2021/08/30 09:27:50;;;;;;;6.80;4.85;;;21.20;72.10;;;;;;5153939;27;20038;-47
2021/08/30 09:30:17;;;;;;;6.78;4.80;;;21.20;72.10;;;;;;5153844;27;20030;-50
2021/08/30 09:32:48;;;;;;;6.22;4.47;;;21.20;72.10;;;;;;5153565;27;20539;-48
2021/08/30 09:35:14;;;;;;;7.35;4.50;;;21.20;72.10;;;;;;5152573;27;20054;-46
2021/08/30 09:37:43;;;;;;;5.38;4.32;;;21.20;72.10;;;;;;5153832;27;20079;-46
2021/08/30 09:40:14;;;;;;;5.40;4.13;;;21.20;72.10;;;;;;5153859;27;20122;-46
2021/08/30 09:42:45;;;;;;;7.20;4.45;;;21.20;72.10;;;;;;5153323;27;20049;-49
2021/08/30 09:45:14;;;;;;;6.47;4.45;;;21.10;72.10;;;;;;5153633;27;20083;-46
2021/08/30 09:47:56;;;;;;;5.13;4.45;;;21.20;72.10;;;;;;5144423;27;20046;-39
2021/08/30 09:50:28;;;;;;;5.35;4.32;;;21.20;72.10;;;;;;5138655;27;20483;-47
2021/08/30 09:52:54;;;;;;;5.13;4.13;;;21.10;72.10;;;;;;5133625;27;20089;-49
2021/08/30 09:55:21;;;;;;;5.65;4.20;;;21.10;72.80;;;;;;5152994;27;20043;-47
2021/08/30 09:57:49;;;;;;;5.15;4.25;;;21.10;72.20;;;;;;5153308;27;20149;-46
2021/08/30 10:00:16;;;;;;;4.93;4.28;;;21.10;72.20;;;;;;5153101;27;20047;-49
2021/08/30 10:02:46;;;;;;;7.20;4.63;;;21.10;72.20;;;;;;5152202;27;20099;-47
2021/08/30 10:05:13;;;;;;;5.03;4.22;;;21.10;72.30;;;;;;5152934;27;20074;-49
2021/08/30 10:07:39;;;;;;;5.22;4.25;;;21.20;72.30;;;;;;5134349;27;20174;-48
2021/08/30 10:10:06;;;;;;;5.50;4.28;;;21.20;72.30;;;;;;5153401;27;20068;-50
2021/08/30 10:12:32;;;;;;;4.53;3.80;;;21.20;72.40;;;;;;5152890;27;20054;-44
2021/08/30 10:14:58;;;;;;;6.05;3.90;;;21.10;72.30;;;;;;5139853;27;20055;-49
2021/08/30 10:17:24;;;;;;;4.78;4.25;;;21.20;72.40;;;;;;5156193;27;20062;-44
2021/08/30 10:20:02;;;;;;;5.53;3.70;;;21.10;72.40;;;;;;5157070;27;20043;-43
2021/08/30 10:22:28;;;;;;;4.80;4.07;;;21.10;72.40;;;;;;5155804;27;20050;-46
2021/08/30 10:24:54;;;;;;;4.70;3.95;;;21.10;72.50;;;;;;5155823;27;20038;-46
2021/08/30 10:27:31;;;;;;;4.68;3.80;;;21.10;72.50;;;;;;5156778;27;20098;-42
2021/08/30 10:30:07;;;;;;;4.25;3.70;;;21.10;72.40;;;;;;5156999;27;20047;-43
2021/08/30 10:32:38;;;;;;;5.47;3.92;;;21.10;72.40;;;;;;5156797;27;20038;-46
2021/08/30 10:35:18;;;;;;;6.38;3.95;;;21.20;72.50;;;;;;5156944;27;20066;-45
2021/08/30 10:37:49;;;;;;;6.20;4.07;;;21.20;72.50;;;;;;5155369;27;20393;-44
2021/08/30 10:40:17;;;;;;;4.15;3.50;;;21.20;72.50;;;;;;5156951;27;20465;-40
2021/08/30 10:42:43;;;;;;;5.82;4.00;;;21.20;72.50;;;;;;5156542;27;20038;-43
2021/08/30 10:45:10;;;;;;;4.90;3.78;;;21.20;72.60;;;;;;5157274;27;20038;-47
2021/08/30 10:47:38;;;;;;;5.80;3.95;;;21.20;72.60;;;;;;5156882;27;20045;-42
2021/08/30 10:50:18;;;;;;;5.50;4.22;;;21.20;72.70;;;;;;5156699;27;20557;-42
2021/08/30 10:52:43;;;;;;;4.35;3.63;;;21.20;72.70;;;;;;5155897;27;20077;-45
2021/08/30 10:55:19;;;;;;;5.25;4.10;;;21.20;72.60;;;;;;5156564;27;20417;-43
2021/08/30 10:57:50;;;;;;;3.95;3.55;;;21.20;72.60;;;;;;5156257;27;20121;-42
2021/08/30 11:00:16;;;;;;;4.35;3.92;;;21.20;72.70;;;;;;5137619;27;20138;-38
2021/08/30 11:02:47;;;;;;;4.63;4.05;;;21.20;72.70;;;;;;5156570;27;20493;-41
2021/08/30 11:05:17;;;;;;;4.90;3.38;;;21.20;72.70;;;;;;5156407;27;20054;-44
2021/08/30 11:07:43;;;;;;;4.47;4.07;;;21.20;72.70;;;;;;5155507;27;20058;-38
2021/08/30 11:10:09;;;;;;;4.28;3.72;;;21.20;72.70;;;;;;5156680;27;20043;-37
2021/08/30 11:12:35;;;;;;;4.72;3.67;;;21.20;72.70;;;;;;5156350;27;20052;-43
2021/08/30 11:15:02;;;;;;;4.30;3.78;;;21.20;72.70;;;;;;5156068;27;20177;-35
2021/08/30 11:17:32;;;;;;;5.43;3.83;;;21.20;72.60;;;;;;5146019;27;20386;-43
2021/08/30 11:20:00;;;;;;;5.05;3.92;;;21.20;72.60;;;;;;5155263;27;20053;-36
2021/08/30 11:22:27;;;;;;;3.85;3.47;;;21.20;72.60;;;;;;5155952;27;20439;-43
2021/08/30 11:24:53;;;;;;;4.15;3.50;;;21.30;72.60;;;;;;5154483;27;20047;-45
2021/08/30 11:27:24;;;;;;;3.80;3.40;;;21.20;72.50;;;;;;5156516;27;20118;-46
2021/08/30 11:29:58;;;;;;;4.45;3.72;;;21.30;72.50;;;;;;5155500;27;20514;-40
2021/08/30 11:32:29;;;;;;;3.70;3.40;;;21.20;72.40;;;;;;5154685;27;20043;-36
2021/08/30 11:34:56;;;;;;;4.75;3.65;;;21.30;72.50;;;;;;5155489;27;20061;-45
2021/08/30 11:37:24;;;;;;;4.03;3.50;;;21.30;72.40;;;;;;5155665;27;20530;-40
2021/08/30 11:39:51;;;;;;;4.90;3.95;;;21.30;72.40;;;;;;5135141;27;20091;-45
2021/08/30 11:42:26;;;;;;;3.80;3.22;;;21.30;72.40;;;;;;5155620;27;20114;-38
2021/08/30 11:44:54;;;;;;;4.43;3.78;;;21.30;72.40;;;;;;5153394;27;20083;-36
2021/08/30 11:47:21;;;;;;;3.90;3.33;;;21.30;72.30;;;;;;5136338;27;20043;-37
2021/08/30 11:49:52;;;;;;;4.22;3.63;;;21.30;72.40;;;;;;5155694;27;20038;-37
2021/08/30 11:52:24;;;;;;;3.95;3.20;;;21.30;72.30;;;;;;5154970;27;20057;-35
2021/08/30 11:55:02;;;;;;;4.15;3.00;;;21.30;72.20;;;;;;5153847;27;20437;-35
2021/08/30 11:57:45;;;;;;;4.50;3.58;;;21.30;72.20;;;;;;5155039;27;20103;-39
2021/08/30 12:00:15;;;;;;;3.83;3.35;;;21.30;72.20;;;;;;5154252;27;20130;-48
2021/08/30 12:02:41;;;;;;;4.18;3.00;;;21.40;72.20;;;;;;5154234;27;20055;-48
2021/08/30 12:05:07;;;;;;;3.72;3.20;;;21.30;72.20;;;;;;5154834;27;20118;-52
2021/08/30 12:07:35;;;;;;;4.35;3.50;;;21.30;72.10;;;;;;5154600;27;20038;-39
2021/08/30 12:10:03;;;;;;;3.97;3.35;;;21.30;72.10;;;;;;5153772;27;20349;-40
2021/08/30 12:12:34;;;;;;;5.00;3.13;;;21.30;72.10;;;;;;5152995;27;20038;-48
2021/08/30 12:15:15;;;;;;;4.65;3.30;;;21.40;72.10;;;;;;5150908;27;20126;-44
2021/08/30 12:17:51;;;;;;;4.05;3.35;;;21.40;72.00;;;;;;5153909;27;20051;-37
2021/08/30 12:20:38;;;;;;;3.70;3.17;;;21.40;72.00;;;;;;5152992;27;20486;-47
2021/08/30 12:23:07;;;;;;;4.28;3.53;;;21.40;72.00;;;;;;5151738;27;20053;-45
2021/08/30 12:25:38;;;;;;;4.40;3.28;;;21.40;72.00;;;;;;5152694;27;20091;-42
2021/08/30 12:28:10;;;;;;;3.42;3.08;;;21.40;71.90;;;;;;5154188;27;20586;-37
2021/08/30 12:30:41;;;;;;;3.35;2.90;;;21.40;71.90;;;;;;5154406;27;20046;-43
2021/08/30 12:33:12;;;;;;;3.30;3.00;;;21.40;71.90;;;;;;5153982;27;20501;-35
2021/08/30 12:35:42;;;;;;;4.07;2.90;;;21.40;71.90;;;;;;5153895;27;20051;-35
2021/08/30 12:38:11;;;;;;;3.25;2.92;;;21.40;71.90;;;;;;5153644;27;20087;-43
2021/08/30 12:40:39;;;;;;;3.42;3.10;;;21.40;71.90;;;;;;5154403;27;20078;-36
2021/08/30 12:43:06;;;;;;;3.20;2.90;;;21.40;71.90;;;;;;5149990;27;20042;-42
2021/08/30 12:45:32;;;;;;;3.83;3.05;;;21.40;71.80;;;;;;5128035;27;20058;-41
2021/08/30 12:47:58;;;;;;;3.35;3.00;;;21.40;71.80;;;;;;5133548;27;20410;-36
2021/08/30 12:50:24;;;;;;;3.30;3.00;;;21.40;71.80;;;;;;5132811;27;20038;-38
2021/08/30 12:52:50;;;;;;;3.13;2.78;;;21.40;71.80;;;;;;5114704;27;20058;-38